createdAt,value
2019-01-30T00:02:08.577Z,12.20
2019-01-30T00:04:42.975Z,10.43
2019-01-30T00:07:17.220Z,11.17
2019-01-30T00:09:51.448Z,11.43
2019-01-30T00:12:25.690Z,10.60
2019-01-30T00:15:00.874Z,10.53
2019-01-30T00:17:35.138Z,10.07
2019-01-30T00:20:09.706Z,8.77
2019-01-30T00:22:45.432Z,10.00
2019-01-30T00:25:19.650Z,9.47
2019-01-30T00:27:53.886Z,8.37
2019-01-30T00:30:28.904Z,8.47
2019-01-30T00:33:03.243Z,9.20
2019-01-30T00:35:37.539Z,8.30
2019-01-30T00:38:11.767Z,8.00
2019-01-30T00:40:47.104Z,9.07
2019-01-30T00:43:23.121Z,7.83
2019-01-30T00:45:57.292Z,7.40
2019-01-30T00:48:31.534Z,7.07
2019-01-30T00:51:05.784Z,7.37
2019-01-30T00:53:40.076Z,7.43
2019-01-30T00:56:14.309Z,7.77
2019-01-30T00:58:48.527Z,7.60
2019-01-30T01:01:22.719Z,7.90
2019-01-30T01:03:56.977Z,7.83
2019-01-30T01:06:31.306Z,8.13
2019-01-30T01:09:09.674Z,6.80
2019-01-30T01:11:44.063Z,7.43
2019-01-30T01:14:18.313Z,7.83
2019-01-30T01:16:53.704Z,8.17
2019-01-30T01:19:27.990Z,7.63
2019-01-30T01:22:02.204Z,7.83
2019-01-30T01:24:37.945Z,8.43
2019-01-30T01:27:12.198Z,7.57
2019-01-30T01:29:46.515Z,8.30
2019-01-30T01:32:20.843Z,7.93
2019-01-30T01:34:55.295Z,7.97
2019-01-30T01:37:29.482Z,8.73
2019-01-30T01:40:04.027Z,7.87
2019-01-30T01:42:38.230Z,7.77
2019-01-30T01:45:15.207Z,7.00
2019-01-30T01:47:49.526Z,7.87
2019-01-30T01:50:23.970Z,7.73
2019-01-30T01:52:58.286Z,7.90
2019-01-30T01:55:32.490Z,7.30
2019-01-30T01:58:06.672Z,8.00
2019-01-30T02:00:40.906Z,8.03
2019-01-30T02:03:15.338Z,7.80
2019-01-30T02:05:49.594Z,6.83
2019-01-30T02:08:23.794Z,7.67
2019-01-30T02:10:58.013Z,6.97
2019-01-30T02:13:32.213Z,8.10
2019-01-30T02:16:06.460Z,7.23
2019-01-30T02:18:40.648Z,8.63
2019-01-30T02:21:14.878Z,8.13
2019-01-30T02:23:49.107Z,8.23
2019-01-30T02:26:23.311Z,7.53
2019-01-30T02:28:57.507Z,7.80
2019-01-30T02:31:31.734Z,8.80
2019-01-30T02:34:05.914Z,8.30
2019-01-30T02:36:58.545Z,7.40
2019-01-30T02:39:32.782Z,8.30
2019-01-30T02:42:06.979Z,7.23
2019-01-30T02:44:41.193Z,7.33
2019-01-30T02:47:15.447Z,8.13
2019-01-30T02:49:49.666Z,8.10
2019-01-30T02:52:23.888Z,8.40
2019-01-30T02:54:58.088Z,8.80
2019-01-30T02:57:32.321Z,8.47
2019-01-30T03:00:08.538Z,8.53
2019-01-30T03:02:42.758Z,7.97
2019-01-30T03:05:16.967Z,7.27
2019-01-30T03:07:51.187Z,7.67
2019-01-30T03:10:25.409Z,7.77
2019-01-30T03:12:59.613Z,8.70
2019-01-30T03:15:33.841Z,7.40
2019-01-30T03:18:08.145Z,8.20
2019-01-30T03:20:42.358Z,7.13
2019-01-30T03:23:16.588Z,7.47
2019-01-30T03:25:50.804Z,6.90
2019-01-30T03:28:24.994Z,7.90
2019-01-30T03:31:15.617Z,8.57
2019-01-30T03:33:35.132Z,8.10
2019-01-30T03:36:09.342Z,7.93
2019-01-30T03:38:43.547Z,8.20
2019-01-30T03:41:17.769Z,9.97
2019-01-30T03:43:51.980Z,8.60
2019-01-30T03:46:26.193Z,8.07
2019-01-30T03:49:00.415Z,7.80
2019-01-30T03:51:34.936Z,7.90
2019-01-30T03:54:09.170Z,8.90
2019-01-30T03:56:43.392Z,8.80
2019-01-30T03:59:17.585Z,8.77
2019-01-30T04:01:51.823Z,8.43
2019-01-30T04:04:26.014Z,9.53
2019-01-30T04:07:00.238Z,8.93
2019-01-30T04:09:34.437Z,9.47
2019-01-30T04:12:08.684Z,9.73
2019-01-30T04:14:42.863Z,10.13
2019-01-30T04:17:17.096Z,9.57
2019-01-30T04:19:51.290Z,9.77
2019-01-30T04:22:25.550Z,9.83
2019-01-30T04:24:59.722Z,8.73
2019-01-30T04:27:33.999Z,10.07
2019-01-30T04:30:12.002Z,9.93
2019-01-30T04:32:46.228Z,10.27
2019-01-30T04:35:20.415Z,10.00
2019-01-30T04:37:54.644Z,9.97
2019-01-30T04:40:28.845Z,9.83
2019-01-30T04:43:03.076Z,10.07
2019-01-30T04:45:37.293Z,9.40
2019-01-30T04:48:11.513Z,9.77
2019-01-30T04:50:45.722Z,9.50
2019-01-30T04:53:19.945Z,10.40
2019-01-30T04:55:54.151Z,10.50
2019-01-30T04:58:28.354Z,9.30
2019-01-30T05:01:02.593Z,9.53
2019-01-30T05:03:36.850Z,9.60
2019-01-30T05:06:11.060Z,10.70
2019-01-30T05:08:45.309Z,9.17
2019-01-30T05:11:19.546Z,10.47
2019-01-30T05:13:53.753Z,10.27
2019-01-30T05:16:27.999Z,9.77
2019-01-30T05:19:02.195Z,10.00
2019-01-30T05:21:36.395Z,10.70
2019-01-30T05:24:10.619Z,10.27
2019-01-30T05:26:44.882Z,10.20
2019-01-30T05:29:19.059Z,11.13
2019-01-30T05:32:01.002Z,10.50
2019-01-30T05:34:48.331Z,10.27
2019-01-30T05:37:22.575Z,11.03
2019-01-30T05:39:56.780Z,10.67
2019-01-30T05:42:30.999Z,10.60
2019-01-30T05:45:05.886Z,10.97
2019-01-30T05:47:40.149Z,11.43
2019-01-30T05:50:53.866Z,10.97
2019-01-30T05:53:28.116Z,10.03
2019-01-30T05:56:02.384Z,10.47
2019-01-30T05:58:36.600Z,11.37
2019-01-30T06:01:10.865Z,10.67
2019-01-30T06:03:45.174Z,9.40
2019-01-30T06:06:19.383Z,10.37
2019-01-30T06:08:53.582Z,10.93
2019-01-30T06:11:27.806Z,10.57
2019-01-30T06:14:02.019Z,10.43
2019-01-30T06:16:36.267Z,9.80
2019-01-30T06:19:10.469Z,10.57
2019-01-30T06:21:44.731Z,10.60
2019-01-30T06:24:18.971Z,10.47
2019-01-30T06:26:53.205Z,11.00
2019-01-30T06:29:27.426Z,10.80
2019-01-30T06:32:01.677Z,10.97
2019-01-30T06:34:35.885Z,9.90
2019-01-30T06:37:10.087Z,9.50
2019-01-30T06:39:44.295Z,10.43
2019-01-30T06:42:18.504Z,10.17
2019-01-30T06:44:52.725Z,9.93
2019-01-30T06:47:26.923Z,10.53
2019-01-30T06:50:01.158Z,9.23
2019-01-30T06:52:35.369Z,12.80
2019-01-30T06:55:09.720Z,13.00
2019-01-30T06:57:43.915Z,10.20
2019-01-30T07:00:20.056Z,10.07
2019-01-30T07:03:33.827Z,9.50
2019-01-30T07:06:08.038Z,12.60
2019-01-30T07:08:42.294Z,16.53
2019-01-30T07:11:16.519Z,12.57
2019-01-30T07:13:50.763Z,11.73
2019-01-30T07:16:24.997Z,11.77
2019-01-30T07:18:59.267Z,11.53
2019-01-30T07:21:33.480Z,11.33
2019-01-30T07:24:07.804Z,10.20
2019-01-30T07:26:42.017Z,11.00
2019-01-30T07:29:16.290Z,10.67
2019-01-30T07:31:50.520Z,11.53
2019-01-30T07:34:24.756Z,11.53
2019-01-30T07:36:59.028Z,11.60
2019-01-30T07:39:33.265Z,12.50
2019-01-30T07:42:07.529Z,11.43
2019-01-30T07:44:50.443Z,10.40
2019-01-30T07:47:17.722Z,10.23
2019-01-30T07:49:51.961Z,12.50
2019-01-30T07:52:26.190Z,11.60
2019-01-30T07:55:00.424Z,11.30
2019-01-30T07:57:34.714Z,10.80
2019-01-30T08:00:12.570Z,10.90
2019-01-30T08:02:52.902Z,10.67
2019-01-30T08:05:22.999Z,9.97
2019-01-30T08:07:57.188Z,11.23
2019-01-30T08:10:31.535Z,12.60
2019-01-30T08:13:06.299Z,9.93
2019-01-30T08:15:41.848Z,9.70
2019-01-30T08:18:16.208Z,9.00
2019-01-30T08:20:50.520Z,9.70
2019-01-30T08:23:25.156Z,11.03
2019-01-30T08:25:59.611Z,10.23
2019-01-30T08:28:34.026Z,11.93
2019-01-30T08:31:08.492Z,11.00
2019-01-30T08:33:42.720Z,9.60
2019-01-30T08:36:16.999Z,9.40
2019-01-30T08:38:51.330Z,8.30
2019-01-30T08:41:25.571Z,8.17
2019-01-30T08:43:59.839Z,10.40
2019-01-30T08:46:37.768Z,10.27
2019-01-30T08:49:12.031Z,9.00
2019-01-30T08:51:46.302Z,7.67
2019-01-30T08:54:20.672Z,8.40
2019-01-30T08:56:54.968Z,7.80
2019-01-30T08:59:29.191Z,7.47
2019-01-30T09:02:03.407Z,8.57
2019-01-30T09:04:37.663Z,8.20
2019-01-30T09:07:11.883Z,7.87
2019-01-30T09:09:46.126Z,7.50
2019-01-30T09:12:21.916Z,7.50
2019-01-30T09:14:57.234Z,8.63
2019-01-30T09:17:31.480Z,7.60
2019-01-30T09:20:07.629Z,8.20
2019-01-30T09:22:41.860Z,7.83
2019-01-30T09:25:18.339Z,8.00
2019-01-30T09:27:52.896Z,7.30
2019-01-30T09:30:29.302Z,8.50
2019-01-30T09:33:03.532Z,8.13
2019-01-30T09:35:37.788Z,6.77
2019-01-30T09:38:12.118Z,7.17
2019-01-30T09:40:46.464Z,7.50
2019-01-30T09:43:20.705Z,7.87
2019-01-30T09:45:54.927Z,9.00
2019-01-30T09:48:29.147Z,9.70
2019-01-30T09:51:03.386Z,9.13
2019-01-30T09:53:37.741Z,9.40
2019-01-30T09:56:11.954Z,8.70
2019-01-30T09:58:46.190Z,7.00
2019-01-30T10:01:20.536Z,7.70
2019-01-30T10:03:54.994Z,6.10
2019-01-30T10:06:29.271Z,5.87
2019-01-30T10:09:04.377Z,6.07
2019-01-30T10:11:38.626Z,5.33
2019-01-30T10:14:12.838Z,5.50
2019-01-30T10:16:47.391Z,5.00
2019-01-30T10:19:21.637Z,5.17
2019-01-30T10:21:55.874Z,5.53
2019-01-30T10:24:30.208Z,5.00
2019-01-30T10:27:04.527Z,5.77
2019-01-30T10:29:38.781Z,4.90
2019-01-30T10:32:13.118Z,5.60
2019-01-30T10:34:47.363Z,7.60
2019-01-30T10:37:22.712Z,4.87
2019-01-30T10:39:57.020Z,5.57
2019-01-30T10:42:31.263Z,6.63
2019-01-30T10:45:06.640Z,9.43
2019-01-30T10:47:40.890Z,6.37
2019-01-30T10:50:17.130Z,7.57
2019-01-30T10:52:51.480Z,5.30
2019-01-30T10:55:27.490Z,7.17
2019-01-30T10:58:03.679Z,7.37
2019-01-30T11:00:40.915Z,7.07
2019-01-30T11:03:15.346Z,6.47
2019-01-30T11:05:49.689Z,7.77
2019-01-30T11:08:23.936Z,8.10
2019-01-30T11:11:07.558Z,8.37
2019-01-30T11:13:35.245Z,7.60
2019-01-30T11:16:09.460Z,7.13
2019-01-30T11:18:43.755Z,7.03
2019-01-30T11:21:17.969Z,6.77
2019-01-30T11:23:52.356Z,6.67
2019-01-30T11:26:26.648Z,2.87
2019-01-30T11:29:00.898Z,3.40
2019-01-30T11:31:35.134Z,2.57
2019-01-30T11:34:09.387Z,2.50
2019-01-30T11:36:43.704Z,1.83
2019-01-30T11:39:17.979Z,2.17
2019-01-30T11:41:52.195Z,1.70
2019-01-30T11:44:27.967Z,1.97
2019-01-30T11:47:02.330Z,1.83
2019-01-30T11:49:36.573Z,1.70
2019-01-30T11:52:12.696Z,1.80
2019-01-30T11:54:47.062Z,2.23
2019-01-30T11:57:21.289Z,1.80
2019-01-30T11:59:55.525Z,1.60
2019-01-30T12:02:29.764Z,1.80
2019-01-30T12:05:04.019Z,1.70
2019-01-30T12:07:38.303Z,1.93
2019-01-30T12:10:12.695Z,1.77
2019-01-30T12:12:46.911Z,1.83
2019-01-30T12:15:21.638Z,1.67
2019-01-30T12:17:55.979Z,1.80
2019-01-30T12:20:30.240Z,1.90
2019-01-30T12:23:05.084Z,1.50
2019-01-30T12:25:39.355Z,2.03
2019-01-30T12:28:13.844Z,2.10
2019-01-30T12:30:48.088Z,1.90
2019-01-30T12:33:22.323Z,1.87
2019-01-30T12:35:56.593Z,1.90
2019-01-30T12:38:30.838Z,1.80
2019-01-30T12:41:05.192Z,1.90
2019-01-30T12:43:39.477Z,1.90
2019-01-30T12:46:13.823Z,2.10
2019-01-30T12:48:48.944Z,1.73
2019-01-30T12:51:23.355Z,1.63
2019-01-30T12:53:57.566Z,2.30
2019-01-30T12:56:31.795Z,1.80
2019-01-30T12:59:06.046Z,1.77
2019-01-30T13:01:40.318Z,2.00
2019-01-30T13:04:14.578Z,2.60
2019-01-30T13:06:48.815Z,1.83
2019-01-30T13:09:23.027Z,1.60
2019-01-30T13:11:57.352Z,2.20
2019-01-30T13:14:31.649Z,2.07
2019-01-30T13:17:05.985Z,2.53
2019-01-30T13:19:40.228Z,2.60
2019-01-30T13:22:14.586Z,2.03
2019-01-30T13:24:49.998Z,2.00
2019-01-30T13:27:24.711Z,2.50
2019-01-30T13:29:58.940Z,2.40
2019-01-30T13:32:34.056Z,2.10
2019-01-30T13:35:08.740Z,2.10
2019-01-30T13:37:42.984Z,2.50
2019-01-30T13:40:20.330Z,1.87
2019-01-30T13:42:54.569Z,1.67
2019-01-30T13:45:29.884Z,2.00
2019-01-30T13:48:05.313Z,2.10
2019-01-30T13:50:39.747Z,2.07
2019-01-30T13:53:14.484Z,1.60
2019-01-30T13:55:48.774Z,1.80
2019-01-30T13:58:23.060Z,1.70
2019-01-30T14:00:57.340Z,1.80
2019-01-30T14:03:31.554Z,2.23
2019-01-30T14:06:05.787Z,1.83
2019-01-30T14:08:40.029Z,1.70
2019-01-30T14:11:14.293Z,1.90
2019-01-30T14:13:48.555Z,2.00
2019-01-30T14:16:22.852Z,1.70
2019-01-30T14:18:57.076Z,1.97
2019-01-30T14:21:31.350Z,1.90
2019-01-30T14:24:05.644Z,1.97
2019-01-30T14:26:39.912Z,2.37
2019-01-30T14:29:14.209Z,2.30
2019-01-30T14:31:48.485Z,3.00
2019-01-30T14:34:22.706Z,1.80
2019-01-30T14:36:56.944Z,1.60
2019-01-30T14:39:31.162Z,2.03
2019-01-30T14:42:05.512Z,2.10
2019-01-30T14:44:39.792Z,2.00
2019-01-30T14:47:14.005Z,2.10
2019-01-30T14:49:48.536Z,2.10
2019-01-30T14:52:22.762Z,2.53
2019-01-30T14:54:57.244Z,2.17
2019-01-30T14:57:31.507Z,2.30
2019-01-30T15:00:07.983Z,2.30
2019-01-30T15:02:42.230Z,1.90
2019-01-30T15:05:22.441Z,1.83
2019-01-30T15:07:52.665Z,1.97
2019-01-30T15:10:27.032Z,2.57
2019-01-30T15:13:01.283Z,2.63
2019-01-30T15:15:35.630Z,1.83
2019-01-30T15:18:10.082Z,2.57
2019-01-30T15:20:44.299Z,2.30
2019-01-30T15:23:18.558Z,2.10
2019-01-30T15:25:52.786Z,2.00
2019-01-30T15:28:27.081Z,2.27
2019-01-30T15:31:01.327Z,45.73
2019-01-30T15:33:35.692Z,52.43
2019-01-30T15:36:09.934Z,5.00
2019-01-30T15:38:44.513Z,2.70
2019-01-30T15:41:18.765Z,2.17
2019-01-30T15:43:53.014Z,1.90
2019-01-30T15:46:27.321Z,2.20
2019-01-30T15:49:03.094Z,2.33
2019-01-30T15:51:37.389Z,2.20
2019-01-30T15:54:11.664Z,2.60
2019-01-30T15:56:45.915Z,2.30
2019-01-30T15:59:20.219Z,2.33
2019-01-30T16:01:54.507Z,3.37
2019-01-30T16:04:29.702Z,8.57
2019-01-30T16:07:03.919Z,2.40
2019-01-30T16:09:38.161Z,2.80
2019-01-30T16:12:12.457Z,3.03
2019-01-30T16:14:46.767Z,2.70
2019-01-30T16:17:21.047Z,2.73
2019-01-30T16:19:55.357Z,2.20
2019-01-30T16:22:29.613Z,3.00
2019-01-30T16:25:09.218Z,2.90
2019-01-30T16:27:40.302Z,2.60
2019-01-30T16:30:17.630Z,2.70
2019-01-30T16:32:51.895Z,2.60
2019-01-30T16:35:28.255Z,2.40
2019-01-30T16:38:02.492Z,2.40
2019-01-30T16:40:36.777Z,2.50
2019-01-30T16:43:11.107Z,2.37
2019-01-30T16:45:45.416Z,12.97
2019-01-30T16:48:19.648Z,2.97
2019-01-30T16:50:53.900Z,4.00
2019-01-30T16:53:28.123Z,3.00
2019-01-30T16:56:02.376Z,3.30
2019-01-30T16:58:36.619Z,3.03
2019-01-30T17:01:10.934Z,2.47
2019-01-30T17:03:45.233Z,2.93
2019-01-30T17:06:19.609Z,2.50
2019-01-30T17:08:53.853Z,2.67
2019-01-30T17:11:28.338Z,2.80
2019-01-30T17:14:02.600Z,2.67
2019-01-30T17:16:36.871Z,3.10
2019-01-30T17:19:11.080Z,2.93
2019-01-30T17:21:45.394Z,3.30
2019-01-30T17:24:19.713Z,3.33
2019-01-30T17:26:54.071Z,3.70
2019-01-30T17:29:28.271Z,3.50
2019-01-30T17:32:02.501Z,2.90
2019-01-30T17:34:36.788Z,2.93
2019-01-30T17:37:11.358Z,3.50
2019-01-30T17:39:45.582Z,3.07
2019-01-30T17:42:21.905Z,3.70
2019-01-30T17:44:56.118Z,3.97
2019-01-30T17:47:30.560Z,10.97
2019-01-30T17:50:05.858Z,5.20
2019-01-30T17:52:40.458Z,4.30
2019-01-30T17:55:15.054Z,4.07
2019-01-30T17:57:50.634Z,3.73
2019-01-30T18:00:30.338Z,5.37
2019-01-30T18:03:04.748Z,4.53
2019-01-30T18:09:25.658Z,3.50
2019-01-30T18:12:00.256Z,3.20
2019-01-30T18:14:34.795Z,3.73
2019-01-30T18:17:09.056Z,3.50
2019-01-30T18:19:43.455Z,3.50
2019-01-30T18:22:17.784Z,4.70
2019-01-30T18:24:52.433Z,5.47
2019-01-30T18:27:26.746Z,3.80
2019-01-30T18:30:01.786Z,3.80
2019-01-30T18:32:36.264Z,4.27
2019-01-30T18:35:11.229Z,3.80
2019-01-30T18:37:45.918Z,3.40
2019-01-30T18:40:21.608Z,4.83
2019-01-30T18:42:56.002Z,5.10
2019-01-30T18:45:30.383Z,7.20
2019-01-30T18:48:04.812Z,3.97
2019-01-30T18:50:39.361Z,4.40
2019-01-30T18:53:13.641Z,3.70
2019-01-30T18:55:48.008Z,6.37
2019-01-30T18:58:22.428Z,6.27
2019-01-30T19:00:57.022Z,3.43
2019-01-30T19:03:31.338Z,3.10
2019-01-30T19:06:06.037Z,4.00
2019-01-30T19:08:40.346Z,3.23
2019-01-30T19:11:14.845Z,3.80
2019-01-30T19:13:49.138Z,5.07
2019-01-30T19:16:24.695Z,4.53
2019-01-30T19:18:58.975Z,4.67
2019-01-30T19:21:33.977Z,5.57
2019-01-30T19:24:08.269Z,5.13
2019-01-30T19:26:43.561Z,4.83
2019-01-30T19:29:17.870Z,5.23
2019-01-30T19:31:52.336Z,5.40
2019-01-30T19:34:26.640Z,3.77
2019-01-30T19:37:03.743Z,5.90
2019-01-30T19:39:37.070Z,5.10
2019-01-30T19:42:11.879Z,4.20
2019-01-30T19:44:46.248Z,6.00
2019-01-30T19:47:20.799Z,3.67
2019-01-30T19:49:55.173Z,2.80
2019-01-30T19:52:29.527Z,3.33
2019-01-30T19:55:04.032Z,3.70
2019-01-30T19:57:38.476Z,3.63
2019-01-30T20:00:16.603Z,4.03
2019-01-30T20:02:51.306Z,4.00
2019-01-30T20:05:27.053Z,5.10
2019-01-30T20:08:01.821Z,5.70
2019-01-30T20:10:36.663Z,4.60
2019-01-30T20:13:11.207Z,5.40
2019-01-30T20:15:45.569Z,4.67
2019-01-30T20:18:20.081Z,4.70
2019-01-30T20:20:54.394Z,32.43
2019-01-30T20:23:28.989Z,9.83
2019-01-30T20:26:03.537Z,13.77
2019-01-30T20:28:37.979Z,5.43
2019-01-30T20:31:12.278Z,4.33
2019-01-30T20:33:46.695Z,5.60
2019-01-30T20:36:21.241Z,4.80
2019-01-30T20:38:55.668Z,6.07
2019-01-30T20:41:33.022Z,4.97
2019-01-30T20:44:07.691Z,6.10
2019-01-30T20:46:42.045Z,4.43
2019-01-30T20:49:16.353Z,4.30
2019-01-30T20:51:50.836Z,4.27
2019-01-30T20:54:25.194Z,4.00
2019-01-30T20:56:59.539Z,5.30
2019-01-30T20:59:34.158Z,5.33
2019-01-30T21:02:08.690Z,4.73
2019-01-30T21:04:43.126Z,4.80
2019-01-30T21:07:17.570Z,4.70
2019-01-30T21:09:51.831Z,4.83
2019-01-30T21:12:26.200Z,4.60
2019-01-30T21:15:00.484Z,5.23
2019-01-30T21:17:34.937Z,5.40
2019-01-30T21:20:09.462Z,5.13
2019-01-30T21:22:44.129Z,5.73
2019-01-30T21:25:19.802Z,5.97
2019-01-30T21:27:54.154Z,5.10
2019-01-30T21:30:30.769Z,5.30
2019-01-30T21:33:05.106Z,5.40
2019-01-30T21:35:39.353Z,4.60
2019-01-30T21:38:13.734Z,4.70
2019-01-30T21:40:48.144Z,4.57
2019-01-30T21:43:22.455Z,4.60
2019-01-30T21:45:56.882Z,5.57
2019-01-30T21:48:31.187Z,7.07
2019-01-30T21:51:05.622Z,7.30
2019-01-30T21:53:39.985Z,6.60
2019-01-30T21:56:14.342Z,6.53
2019-01-30T21:58:48.907Z,5.80
2019-01-30T22:01:23.173Z,5.83
2019-01-30T22:03:57.519Z,6.30
2019-01-30T22:06:31.820Z,6.13
2019-01-30T22:09:08.027Z,6.47
2019-01-30T22:11:43.398Z,6.50
2019-01-30T22:14:17.789Z,5.83
2019-01-30T22:16:52.144Z,5.63
2019-01-30T22:19:26.411Z,6.87
2019-01-30T22:22:00.628Z,7.50
2019-01-30T22:24:35.011Z,10.13
2019-01-30T22:27:10.419Z,7.80
2019-01-30T22:29:44.671Z,6.60
2019-01-30T22:32:18.897Z,5.07
2019-01-30T22:34:53.247Z,4.83
2019-01-30T22:37:27.513Z,5.40
2019-01-30T22:40:01.845Z,4.77
2019-01-30T22:42:36.116Z,5.70
2019-01-30T22:45:12.552Z,5.80
2019-01-30T22:47:46.938Z,5.40
2019-01-30T22:50:21.396Z,5.57
2019-01-30T22:52:55.611Z,6.23
2019-01-30T22:55:29.869Z,6.30
2019-01-30T22:58:04.096Z,6.03
2019-01-30T23:01:19.839Z,6.03
2019-01-30T23:04:21.967Z,5.87
2019-01-30T23:07:26.173Z,5.83
2019-01-30T23:10:41.182Z,4.93
2019-01-30T23:13:25.090Z,5.10
2019-01-30T23:16:30.962Z,4.20
2019-01-30T23:19:25.427Z,4.33
2019-01-30T23:22:14.203Z,4.97
2019-01-30T23:25:28.496Z,4.60
2019-01-30T23:28:28.368Z,4.33
2019-01-30T23:31:20.609Z,4.40
2019-01-30T23:34:39.454Z,4.23
2019-01-30T23:37:46.862Z,3.90
2019-01-30T23:41:03.499Z,4.37
2019-01-30T23:44:07.881Z,4.17
2019-01-30T23:47:13.947Z,4.37
2019-01-30T23:50:21.843Z,4.00
2019-01-30T23:53:31.996Z,3.90
2019-01-30T23:56:16.876Z,3.87
2019-01-30T23:59:17.851Z,3.63
